sensor_id;sensor_type;location;lat;lon;timestamp;P1;durP1;ratioP1;P2;durP2;ratioP2
56631;SDS011;42503;39.928;-75.152;2022-09-27T00:01:06;2.60;;;2.20;;
56631;SDS011;42503;39.928;-75.152;2022-09-27T00:03:10;2.42;;;1.80;;
56631;SDS011;42503;39.928;-75.152;2022-09-27T00:05:11;5.97;;;2.10;;
56631;SDS011;42503;39.928;-75.152;2022-09-27T00:07:15;2.33;;;1.77;;
56631;SDS011;42503;39.928;-75.152;2022-09-27T00:09:16;4.10;;;1.98;;
56631;SDS011;42503;39.928;-75.152;2022-09-27T00:11:28;3.60;;;1.90;;
56631;SDS011;42503;39.928;-75.152;2022-09-27T00:13:35;6.82;;;1.85;;
56631;SDS011;42503;39.928;-75.152;2022-09-27T00:15:37;4.55;;;1.90;;
56631;SDS011;42503;39.928;-75.152;2022-09-27T00:17:47;3.10;;;2.08;;
56631;SDS011;42503;39.928;-75.152;2022-09-27T00:19:51;4.55;;;2.53;;
56631;SDS011;42503;39.928;-75.152;2022-09-27T00:21:55;3.63;;;1.67;;
56631;SDS011;42503;39.928;-75.152;2022-09-27T00:23:57;3.30;;;2.13;;
56631;SDS011;42503;39.928;-75.152;2022-09-27T00:25:59;4.88;;;1.92;;
56631;SDS011;42503;39.928;-75.152;2022-09-27T00:28:01;5.78;;;2.00;;
56631;SDS011;42503;39.928;-75.152;2022-09-27T00:30:05;3.63;;;1.75;;
56631;SDS011;42503;39.928;-75.152;2022-09-27T00:32:09;3.42;;;2.15;;
56631;SDS011;42503;39.928;-75.152;2022-09-27T00:34:21;3.83;;;2.05;;
56631;SDS011;42503;39.928;-75.152;2022-09-27T00:36:24;3.13;;;2.08;;
56631;SDS011;42503;39.928;-75.152;2022-09-27T00:38:26;2.22;;;1.52;;
56631;SDS011;42503;39.928;-75.152;2022-09-27T00:40:28;7.50;;;1.95;;
56631;SDS011;42503;39.928;-75.152;2022-09-27T00:42:29;2.70;;;1.80;;
56631;SDS011;42503;39.928;-75.152;2022-09-27T00:46:39;4.05;;;1.95;;
56631;SDS011;42503;39.928;-75.152;2022-09-27T00:48:51;2.60;;;1.65;;
56631;SDS011;42503;39.928;-75.152;2022-09-27T00:51:12;4.80;;;1.70;;
56631;SDS011;42503;39.928;-75.152;2022-09-27T00:53:16;6.97;;;1.70;;
56631;SDS011;42503;39.928;-75.152;2022-09-27T00:55:23;3.03;;;1.63;;
56631;SDS011;42503;39.928;-75.152;2022-09-27T00:57:29;2.63;;;1.73;;
56631;SDS011;42503;39.928;-75.152;2022-09-27T01:00:04;1.90;;;1.50;;
56631;SDS011;42503;39.928;-75.152;2022-09-27T01:02:09;2.47;;;1.42;;
56631;SDS011;42503;39.928;-75.152;2022-09-27T01:04:14;3.00;;;1.50;;
56631;SDS011;42503;39.928;-75.152;2022-09-27T01:06:19;2.22;;;1.75;;
56631;SDS011;42503;39.928;-75.152;2022-09-27T01:08:24;3.67;;;2.25;;
56631;SDS011;42503;39.928;-75.152;2022-09-27T01:10:30;3.03;;;1.70;;
56631;SDS011;42503;39.928;-75.152;2022-09-27T01:20:06;3.15;;;1.73;;
56631;SDS011;42503;39.928;-75.152;2022-09-27T01:22:32;2.65;;;1.50;;
56631;SDS011;42503;39.928;-75.152;2022-09-27T01:27:03;2.17;;;1.88;;
56631;SDS011;42503;39.928;-75.152;2022-09-27T01:43:39;2.08;;;1.50;;
56631;SDS011;42503;39.928;-75.152;2022-09-27T01:45:44;2.03;;;1.48;;
56631;SDS011;42503;39.928;-75.152;2022-09-27T01:47:54;1.90;;;1.45;;
56631;SDS011;42503;39.928;-75.152;2022-09-27T01:50:03;1.98;;;1.60;;
56631;SDS011;42503;39.928;-75.152;2022-09-27T01:52:18;1.80;;;1.50;;
56631;SDS011;42503;39.928;-75.152;2022-09-27T01:56:32;1.90;;;1.55;;
56631;SDS011;42503;39.928;-75.152;2022-09-27T01:58:51;3.30;;;1.38;;
56631;SDS011;42503;39.928;-75.152;2022-09-27T02:01:08;2.22;;;1.38;;
56631;SDS011;42503;39.928;-75.152;2022-09-27T02:03:12;1.73;;;1.45;;
56631;SDS011;42503;39.928;-75.152;2022-09-27T02:05:18;2.10;;;1.40;;
56631;SDS011;42503;39.928;-75.152;2022-09-27T02:07:23;5.47;;;1.50;;
56631;SDS011;42503;39.928;-75.152;2022-09-27T02:09:49;3.03;;;1.23;;
56631;SDS011;42503;39.928;-75.152;2022-09-27T02:11:56;3.80;;;1.30;;
56631;SDS011;42503;39.928;-75.152;2022-09-27T02:14:21;2.38;;;1.63;;
56631;SDS011;42503;39.928;-75.152;2022-09-27T02:16:33;2.70;;;1.20;;
56631;SDS011;42503;39.928;-75.152;2022-09-27T02:21:10;2.45;;;1.10;;
56631;SDS011;42503;39.928;-75.152;2022-09-27T02:27:26;5.50;;;1.40;;
56631;SDS011;42503;39.928;-75.152;2022-09-27T02:29:49;2.30;;;0.98;;
56631;SDS011;42503;39.928;-75.152;2022-09-27T02:31:58;1.23;;;1.13;;
56631;SDS011;42503;39.928;-75.152;2022-09-27T02:34:02;3.13;;;1.30;;
56631;SDS011;42503;39.928;-75.152;2022-09-27T02:36:08;2.45;;;1.50;;
56631;SDS011;42503;39.928;-75.152;2022-09-27T02:38:09;2.28;;;1.48;;
56631;SDS011;42503;39.928;-75.152;2022-09-27T02:40:11;2.97;;;1.48;;
56631;SDS011;42503;39.928;-75.152;2022-09-27T02:42:16;2.80;;;1.00;;
56631;SDS011;42503;39.928;-75.152;2022-09-27T02:44:17;2.28;;;1.20;;
56631;SDS011;42503;39.928;-75.152;2022-09-27T02:49:03;2.67;;;1.13;;
56631;SDS011;42503;39.928;-75.152;2022-09-27T02:56:37;1.63;;;1.17;;
56631;SDS011;42503;39.928;-75.152;2022-09-27T02:59:25;2.15;;;1.30;;
56631;SDS011;42503;39.928;-75.152;2022-09-27T03:06:13;1.20;;;1.10;;
56631;SDS011;42503;39.928;-75.152;2022-09-27T03:08:18;3.28;;;1.52;;
56631;SDS011;42503;39.928;-75.152;2022-09-27T03:10:21;1.73;;;1.13;;
56631;SDS011;42503;39.928;-75.152;2022-09-27T03:12:25;1.83;;;1.38;;
56631;SDS011;42503;39.928;-75.152;2022-09-27T03:14:26;1.80;;;1.23;;
56631;SDS011;42503;39.928;-75.152;2022-09-27T03:16:28;3.03;;;1.30;;
56631;SDS011;42503;39.928;-75.152;2022-09-27T03:18:29;2.67;;;1.17;;
56631;SDS011;42503;39.928;-75.152;2022-09-27T03:20:31;3.17;;;1.30;;
56631;SDS011;42503;39.928;-75.152;2022-09-27T03:22:32;3.00;;;1.15;;
56631;SDS011;42503;39.928;-75.152;2022-09-27T03:24:33;2.88;;;1.38;;
56631;SDS011;42503;39.928;-75.152;2022-09-27T03:26:35;2.20;;;1.17;;
56631;SDS011;42503;39.928;-75.152;2022-09-27T03:28:36;1.70;;;1.33;;
56631;SDS011;42503;39.928;-75.152;2022-09-27T03:30:37;2.08;;;1.40;;
56631;SDS011;42503;39.928;-75.152;2022-09-27T03:32:42;2.67;;;1.15;;
56631;SDS011;42503;39.928;-75.152;2022-09-27T03:34:44;2.55;;;1.30;;
56631;SDS011;42503;39.928;-75.152;2022-09-27T03:36:45;3.00;;;1.02;;
56631;SDS011;42503;39.928;-75.152;2022-09-27T03:38:47;4.65;;;1.23;;
56631;SDS011;42503;39.928;-75.152;2022-09-27T03:40:48;2.42;;;1.20;;
56631;SDS011;42503;39.928;-75.152;2022-09-27T03:42:51;1.58;;;1.20;;
56631;SDS011;42503;39.928;-75.152;2022-09-27T03:44:53;1.85;;;1.38;;
56631;SDS011;42503;39.928;-75.152;2022-09-27T03:46:54;2.58;;;1.17;;
56631;SDS011;42503;39.928;-75.152;2022-09-27T03:48:55;1.35;;;1.10;;
56631;SDS011;42503;39.928;-75.152;2022-09-27T03:50:57;1.92;;;1.35;;
56631;SDS011;42503;39.928;-75.152;2022-09-27T03:52:58;3.05;;;1.20;;
56631;SDS011;42503;39.928;-75.152;2022-09-27T03:55:02;1.73;;;1.30;;
56631;SDS011;42503;39.928;-75.152;2022-09-27T03:57:04;1.98;;;1.27;;
56631;SDS011;42503;39.928;-75.152;2022-09-27T03:59:05;1.80;;;1.38;;
56631;SDS011;42503;39.928;-75.152;2022-09-27T04:01:07;2.47;;;0.95;;
56631;SDS011;42503;39.928;-75.152;2022-09-27T04:03:11;2.88;;;1.17;;
56631;SDS011;42503;39.928;-75.152;2022-09-27T04:05:13;1.98;;;1.08;;
56631;SDS011;42503;39.928;-75.152;2022-09-27T04:07:17;2.37;;;1.07;;
56631;SDS011;42503;39.928;-75.152;2022-09-27T04:09:18;1.95;;;1.00;;
56631;SDS011;42503;39.928;-75.152;2022-09-27T04:11:19;1.33;;;1.20;;
56631;SDS011;42503;39.928;-75.152;2022-09-27T04:13:22;1.95;;;1.27;;
56631;SDS011;42503;39.928;-75.152;2022-09-27T04:15:24;2.60;;;1.58;;
56631;SDS011;42503;39.928;-75.152;2022-09-27T04:17:25;1.27;;;1.08;;
56631;SDS011;42503;39.928;-75.152;2022-09-27T04:19:27;1.25;;;1.00;;
56631;SDS011;42503;39.928;-75.152;2022-09-27T04:21:31;1.88;;;1.40;;
56631;SDS011;42503;39.928;-75.152;2022-09-27T04:23:33;3.25;;;1.05;;
56631;SDS011;42503;39.928;-75.152;2022-09-27T04:25:37;3.27;;;1.37;;
56631;SDS011;42503;39.928;-75.152;2022-09-27T04:27:43;1.83;;;1.10;;
56631;SDS011;42503;39.928;-75.152;2022-09-27T04:29:47;1.33;;;1.13;;
56631;SDS011;42503;39.928;-75.152;2022-09-27T04:31:52;2.23;;;1.43;;
56631;SDS011;42503;39.928;-75.152;2022-09-27T04:33:53;1.55;;;1.05;;
56631;SDS011;42503;39.928;-75.152;2022-09-27T04:35:54;1.88;;;1.10;;
56631;SDS011;42503;39.928;-75.152;2022-09-27T04:38:14;2.38;;;1.17;;
56631;SDS011;42503;39.928;-75.152;2022-09-27T04:40:18;2.15;;;1.20;;
56631;SDS011;42503;39.928;-75.152;2022-09-27T04:42:21;3.78;;;1.25;;
56631;SDS011;42503;39.928;-75.152;2022-09-27T04:44:25;2.00;;;1.15;;
56631;SDS011;42503;39.928;-75.152;2022-09-27T04:46:27;1.40;;;0.95;;
56631;SDS011;42503;39.928;-75.152;2022-09-27T04:48:35;1.75;;;1.20;;
56631;SDS011;42503;39.928;-75.152;2022-09-27T04:50:37;1.73;;;1.30;;
56631;SDS011;42503;39.928;-75.152;2022-09-27T04:52:41;1.48;;;1.38;;
56631;SDS011;42503;39.928;-75.152;2022-09-27T04:54:43;1.20;;;0.95;;
56631;SDS011;42503;39.928;-75.152;2022-09-27T04:56:44;4.20;;;1.00;;
56631;SDS011;42503;39.928;-75.152;2022-09-27T04:58:46;1.52;;;0.90;;
56631;SDS011;42503;39.928;-75.152;2022-09-27T05:00:47;1.25;;;1.08;;
56631;SDS011;42503;39.928;-75.152;2022-09-27T05:02:48;1.95;;;1.00;;
56631;SDS011;42503;39.928;-75.152;2022-09-27T05:04:52;1.55;;;1.23;;
56631;SDS011;42503;39.928;-75.152;2022-09-27T05:06:57;1.42;;;1.02;;
56631;SDS011;42503;39.928;-75.152;2022-09-27T05:08:58;1.92;;;1.50;;
56631;SDS011;42503;39.928;-75.152;2022-09-27T05:11:00;1.90;;;1.10;;
56631;SDS011;42503;39.928;-75.152;2022-09-27T05:13:01;1.27;;;1.02;;
56631;SDS011;42503;39.928;-75.152;2022-09-27T05:15:06;1.90;;;1.13;;
56631;SDS011;42503;39.928;-75.152;2022-09-27T05:17:08;1.25;;;0.95;;
56631;SDS011;42503;39.928;-75.152;2022-09-27T05:19:12;1.35;;;1.10;;
56631;SDS011;42503;39.928;-75.152;2022-09-27T05:21:14;2.33;;;0.90;;
56631;SDS011;42503;39.928;-75.152;2022-09-27T05:23:15;1.23;;;1.00;;
56631;SDS011;42503;39.928;-75.152;2022-09-27T05:25:17;1.08;;;0.82;;
56631;SDS011;42503;39.928;-75.152;2022-09-27T05:27:19;0.98;;;0.90;;
56631;SDS011;42503;39.928;-75.152;2022-09-27T05:29:23;1.60;;;1.23;;
56631;SDS011;42503;39.928;-75.152;2022-09-27T05:31:24;1.00;;;0.90;;
56631;SDS011;42503;39.928;-75.152;2022-09-27T05:33:26;1.23;;;1.13;;
56631;SDS011;42503;39.928;-75.152;2022-09-27T05:35:27;1.00;;;0.80;;
56631;SDS011;42503;39.928;-75.152;2022-09-27T05:37:29;1.63;;;0.98;;
56631;SDS011;42503;39.928;-75.152;2022-09-27T05:39:31;1.00;;;0.90;;
56631;SDS011;42503;39.928;-75.152;2022-09-27T05:41:32;1.25;;;1.05;;
56631;SDS011;42503;39.928;-75.152;2022-09-27T05:43:34;1.70;;;1.13;;
56631;SDS011;42503;39.928;-75.152;2022-09-27T05:45:36;0.88;;;0.82;;
56631;SDS011;42503;39.928;-75.152;2022-09-27T05:47:37;0.90;;;0.70;;
56631;SDS011;42503;39.928;-75.152;2022-09-27T05:49:38;1.10;;;1.00;;
56631;SDS011;42503;39.928;-75.152;2022-09-27T05:51:48;1.13;;;1.00;;
56631;SDS011;42503;39.928;-75.152;2022-09-27T05:53:49;1.52;;;1.05;;
56631;SDS011;42503;39.928;-75.152;2022-09-27T05:55:51;3.05;;;0.80;;
56631;SDS011;42503;39.928;-75.152;2022-09-27T05:57:53;1.67;;;1.00;;
56631;SDS011;42503;39.928;-75.152;2022-09-27T06:00:01;1.15;;;0.98;;
56631;SDS011;42503;39.928;-75.152;2022-09-27T06:02:03;1.38;;;0.85;;
56631;SDS011;42503;39.928;-75.152;2022-09-27T06:04:04;1.00;;;0.90;;
56631;SDS011;42503;39.928;-75.152;2022-09-27T06:06:06;2.75;;;1.00;;
56631;SDS011;42503;39.928;-75.152;2022-09-27T06:08:08;1.17;;;0.80;;
56631;SDS011;42503;39.928;-75.152;2022-09-27T06:10:11;1.85;;;1.00;;
56631;SDS011;42503;39.928;-75.152;2022-09-27T06:12:16;1.00;;;0.90;;
56631;SDS011;42503;39.928;-75.152;2022-09-27T06:14:20;1.08;;;1.00;;
56631;SDS011;42503;39.928;-75.152;2022-09-27T06:16:27;1.90;;;0.85;;
56631;SDS011;42503;39.928;-75.152;2022-09-27T06:18:35;1.10;;;1.00;;
56631;SDS011;42503;39.928;-75.152;2022-09-27T06:20:36;1.70;;;1.02;;
56631;SDS011;42503;39.928;-75.152;2022-09-27T06:22:42;1.13;;;1.02;;
56631;SDS011;42503;39.928;-75.152;2022-09-27T06:24:48;1.27;;;0.90;;
56631;SDS011;42503;39.928;-75.152;2022-09-27T06:26:55;1.35;;;0.80;;
56631;SDS011;42503;39.928;-75.152;2022-09-27T06:28:56;1.70;;;0.73;;
56631;SDS011;42503;39.928;-75.152;2022-09-27T06:30:57;1.33;;;0.75;;
56631;SDS011;42503;39.928;-75.152;2022-09-27T06:33:02;1.23;;;0.90;;
56631;SDS011;42503;39.928;-75.152;2022-09-27T06:35:06;1.67;;;0.70;;
56631;SDS011;42503;39.928;-75.152;2022-09-27T06:37:07;2.08;;;0.80;;
56631;SDS011;42503;39.928;-75.152;2022-09-27T06:39:09;2.85;;;1.17;;
56631;SDS011;42503;39.928;-75.152;2022-09-27T06:41:10;1.58;;;1.02;;
56631;SDS011;42503;39.928;-75.152;2022-09-27T06:43:13;1.10;;;1.00;;
56631;SDS011;42503;39.928;-75.152;2022-09-27T06:45:16;1.27;;;1.10;;
56631;SDS011;42503;39.928;-75.152;2022-09-27T06:47:18;2.85;;;0.98;;
56631;SDS011;42503;39.928;-75.152;2022-09-27T06:49:20;1.00;;;0.90;;
56631;SDS011;42503;39.928;-75.152;2022-09-27T06:51:31;1.35;;;1.00;;
56631;SDS011;42503;39.928;-75.152;2022-09-27T06:53:32;1.33;;;0.90;;
56631;SDS011;42503;39.928;-75.152;2022-09-27T06:55:33;1.17;;;0.80;;
56631;SDS011;42503;39.928;-75.152;2022-09-27T06:57:38;1.25;;;1.13;;
56631;SDS011;42503;39.928;-75.152;2022-09-27T06:59:57;1.20;;;0.95;;
56631;SDS011;42503;39.928;-75.152;2022-09-27T07:02:17;2.92;;;1.00;;
56631;SDS011;42503;39.928;-75.152;2022-09-27T07:04:18;0.90;;;0.80;;
56631;SDS011;42503;39.928;-75.152;2022-09-27T07:06:20;0.95;;;0.77;;
56631;SDS011;42503;39.928;-75.152;2022-09-27T07:08:24;1.27;;;0.70;;
56631;SDS011;42503;39.928;-75.152;2022-09-27T07:10:28;1.25;;;1.15;;
56631;SDS011;42503;39.928;-75.152;2022-09-27T07:12:34;1.10;;;0.80;;
56631;SDS011;42503;39.928;-75.152;2022-09-27T07:14:39;0.95;;;0.80;;
56631;SDS011;42503;39.928;-75.152;2022-09-27T07:16:43;1.58;;;1.17;;
56631;SDS011;42503;39.928;-75.152;2022-09-27T07:18:46;1.55;;;0.75;;
56631;SDS011;42503;39.928;-75.152;2022-09-27T07:20:48;1.38;;;0.82;;
56631;SDS011;42503;39.928;-75.152;2022-09-27T07:22:53;1.63;;;1.00;;
56631;SDS011;42503;39.928;-75.152;2022-09-27T07:24:54;0.80;;;0.73;;
56631;SDS011;42503;39.928;-75.152;2022-09-27T07:26:55;2.35;;;1.08;;
56631;SDS011;42503;39.928;-75.152;2022-09-27T07:28:56;1.08;;;0.70;;
56631;SDS011;42503;39.928;-75.152;2022-09-27T07:31:02;0.90;;;0.80;;
56631;SDS011;42503;39.928;-75.152;2022-09-27T07:33:04;2.38;;;0.75;;
56631;SDS011;42503;39.928;-75.152;2022-09-27T07:35:06;0.90;;;0.77;;
56631;SDS011;42503;39.928;-75.152;2022-09-27T07:37:08;3.00;;;0.90;;
56631;SDS011;42503;39.928;-75.152;2022-09-27T07:39:10;4.25;;;1.17;;
56631;SDS011;42503;39.928;-75.152;2022-09-27T07:41:12;3.72;;;1.10;;
56631;SDS011;42503;39.928;-75.152;2022-09-27T07:43:14;1.05;;;0.90;;
56631;SDS011;42503;39.928;-75.152;2022-09-27T07:45:15;0.93;;;0.70;;
56631;SDS011;42503;39.928;-75.152;2022-09-27T07:47:17;1.30;;;0.95;;
56631;SDS011;42503;39.928;-75.152;2022-09-27T07:49:19;0.88;;;0.75;;
56631;SDS011;42503;39.928;-75.152;2022-09-27T07:51:20;1.90;;;0.90;;
56631;SDS011;42503;39.928;-75.152;2022-09-27T07:53:25;1.05;;;0.95;;
56631;SDS011;42503;39.928;-75.152;2022-09-27T07:55:29;0.82;;;0.70;;
56631;SDS011;42503;39.928;-75.152;2022-09-27T07:57:31;0.80;;;0.80;;
56631;SDS011;42503;39.928;-75.152;2022-09-27T07:59:32;1.30;;;1.00;;
56631;SDS011;42503;39.928;-75.152;2022-09-27T08:01:33;1.35;;;0.70;;
56631;SDS011;42503;39.928;-75.152;2022-09-27T08:03:34;0.93;;;0.73;;
56631;SDS011;42503;39.928;-75.152;2022-09-27T08:05:36;1.15;;;0.88;;
56631;SDS011;42503;39.928;-75.152;2022-09-27T08:07:37;0.98;;;0.90;;
56631;SDS011;42503;39.928;-75.152;2022-09-27T08:09:42;1.25;;;0.65;;
56631;SDS011;42503;39.928;-75.152;2022-09-27T08:11:46;0.90;;;0.77;;
56631;SDS011;42503;39.928;-75.152;2022-09-27T08:13:48;0.88;;;0.77;;
56631;SDS011;42503;39.928;-75.152;2022-09-27T08:15:52;1.08;;;0.80;;
56631;SDS011;42503;39.928;-75.152;2022-09-27T08:17:53;0.90;;;0.70;;
56631;SDS011;42503;39.928;-75.152;2022-09-27T08:19:55;1.48;;;0.90;;
56631;SDS011;42503;39.928;-75.152;2022-09-27T08:21:58;1.50;;;0.90;;
56631;SDS011;42503;39.928;-75.152;2022-09-27T08:24:00;0.80;;;0.80;;
56631;SDS011;42503;39.928;-75.152;2022-09-27T08:26:04;2.15;;;1.00;;
56631;SDS011;42503;39.928;-75.152;2022-09-27T08:28:05;1.20;;;0.82;;
56631;SDS011;42503;39.928;-75.152;2022-09-27T08:30:07;0.70;;;0.70;;
56631;SDS011;42503;39.928;-75.152;2022-09-27T08:32:11;1.40;;;0.70;;
56631;SDS011;42503;39.928;-75.152;2022-09-27T08:34:13;1.75;;;0.82;;
56631;SDS011;42503;39.928;-75.152;2022-09-27T08:36:17;1.37;;;0.63;;
56631;SDS011;42503;39.928;-75.152;2022-09-27T08:38:19;1.40;;;0.80;;
56631;SDS011;42503;39.928;-75.152;2022-09-27T08:40:23;1.50;;;0.80;;
56631;SDS011;42503;39.928;-75.152;2022-09-27T08:44:53;0.65;;;0.65;;
56631;SDS011;42503;39.928;-75.152;2022-09-27T08:49:56;2.15;;;0.75;;
56631;SDS011;42503;39.928;-75.152;2022-09-27T08:52:02;0.95;;;0.85;;
56631;SDS011;42503;39.928;-75.152;2022-09-27T08:54:19;1.23;;;0.80;;
56631;SDS011;42503;39.928;-75.152;2022-09-27T08:56:30;1.23;;;0.63;;
56631;SDS011;42503;39.928;-75.152;2022-09-27T09:00:51;0.80;;;0.80;;
56631;SDS011;42503;39.928;-75.152;2022-09-27T09:03:04;1.13;;;0.70;;
56631;SDS011;42503;39.928;-75.152;2022-09-27T09:05:07;1.33;;;0.82;;
56631;SDS011;42503;39.928;-75.152;2022-09-27T09:07:57;0.85;;;0.80;;
56631;SDS011;42503;39.928;-75.152;2022-09-27T09:13:32;1.02;;;0.60;;
56631;SDS011;42503;39.928;-75.152;2022-09-27T09:25:30;2.95;;;0.75;;
56631;SDS011;42503;39.928;-75.152;2022-09-27T09:32:33;2.45;;;0.60;;
56631;SDS011;42503;39.928;-75.152;2022-09-27T09:35:00;0.95;;;0.70;;
56631;SDS011;42503;39.928;-75.152;2022-09-27T09:39:21;0.70;;;0.65;;
56631;SDS011;42503;39.928;-75.152;2022-09-27T09:42:05;1.60;;;0.65;;
56631;SDS011;42503;39.928;-75.152;2022-09-27T09:44:39;3.65;;;1.00;;
56631;SDS011;42503;39.928;-75.152;2022-09-27T09:46:46;0.70;;;0.50;;
56631;SDS011;42503;39.928;-75.152;2022-09-27T09:49:10;1.80;;;0.88;;
56631;SDS011;42503;39.928;-75.152;2022-09-27T09:53:34;0.90;;;0.90;;
56631;SDS011;42503;39.928;-75.152;2022-09-27T09:55:42;1.10;;;0.93;;
56631;SDS011;42503;39.928;-75.152;2022-09-27T10:00:21;1.17;;;0.70;;
56631;SDS011;42503;39.928;-75.152;2022-09-27T10:02:33;1.30;;;0.50;;
56631;SDS011;42503;39.928;-75.152;2022-09-27T10:04:39;1.60;;;0.73;;
56631;SDS011;42503;39.928;-75.152;2022-09-27T10:06:41;0.80;;;0.80;;
56631;SDS011;42503;39.928;-75.152;2022-09-27T10:08:42;1.00;;;0.70;;
56631;SDS011;42503;39.928;-75.152;2022-09-27T10:10:44;1.75;;;0.85;;
56631;SDS011;42503;39.928;-75.152;2022-09-27T10:12:46;3.00;;;0.82;;
56631;SDS011;42503;39.928;-75.152;2022-09-27T10:14:49;1.95;;;0.95;;
56631;SDS011;42503;39.928;-75.152;2022-09-27T10:17:01;3.00;;;0.80;;
56631;SDS011;42503;39.928;-75.152;2022-09-27T10:19:05;1.65;;;0.90;;
56631;SDS011;42503;39.928;-75.152;2022-09-27T10:21:12;1.70;;;0.80;;
56631;SDS011;42503;39.928;-75.152;2022-09-27T10:23:20;1.15;;;0.80;;
56631;SDS011;42503;39.928;-75.152;2022-09-27T10:25:31;0.85;;;0.60;;
56631;SDS011;42503;39.928;-75.152;2022-09-27T10:27:48;2.47;;;0.80;;
56631;SDS011;42503;39.928;-75.152;2022-09-27T10:29:58;2.22;;;0.98;;
56631;SDS011;42503;39.928;-75.152;2022-09-27T10:32:03;3.33;;;0.90;;
56631;SDS011;42503;39.928;-75.152;2022-09-27T10:36:33;0.68;;;0.68;;
56631;SDS011;42503;39.928;-75.152;2022-09-27T10:38:36;1.30;;;0.70;;
56631;SDS011;42503;39.928;-75.152;2022-09-27T10:40:37;1.85;;;0.60;;
56631;SDS011;42503;39.928;-75.152;2022-09-27T10:42:38;2.83;;;0.73;;
56631;SDS011;42503;39.928;-75.152;2022-09-27T10:44:42;1.13;;;0.57;;
56631;SDS011;42503;39.928;-75.152;2022-09-27T10:46:45;1.60;;;0.70;;
56631;SDS011;42503;39.928;-75.152;2022-09-27T10:51:24;5.47;;;0.90;;
56631;SDS011;42503;39.928;-75.152;2022-09-27T10:53:30;2.33;;;0.75;;
56631;SDS011;42503;39.928;-75.152;2022-09-27T10:55:36;3.03;;;1.10;;
56631;SDS011;42503;39.928;-75.152;2022-09-27T10:57:39;1.10;;;0.88;;
56631;SDS011;42503;39.928;-75.152;2022-09-27T10:59:41;1.40;;;0.70;;
56631;SDS011;42503;39.928;-75.152;2022-09-27T11:01:47;1.65;;;0.70;;
56631;SDS011;42503;39.928;-75.152;2022-09-27T11:03:51;2.92;;;0.80;;
56631;SDS011;42503;39.928;-75.152;2022-09-27T11:05:58;1.30;;;0.88;;
56631;SDS011;42503;39.928;-75.152;2022-09-27T11:08:01;1.52;;;0.77;;
56631;SDS011;42503;39.928;-75.152;2022-09-27T11:12:27;3.05;;;0.90;;
56631;SDS011;42503;39.928;-75.152;2022-09-27T11:14:30;1.08;;;0.77;;
56631;SDS011;42503;39.928;-75.152;2022-09-27T11:16:41;1.23;;;0.75;;
56631;SDS011;42503;39.928;-75.152;2022-09-27T11:22:21;3.00;;;0.80;;
56631;SDS011;42503;39.928;-75.152;2022-09-27T11:28:54;1.52;;;0.70;;
56631;SDS011;42503;39.928;-75.152;2022-09-27T11:31:40;1.00;;;0.80;;
56631;SDS011;42503;39.928;-75.152;2022-09-27T11:38:41;14.73;;;2.00;;
56631;SDS011;42503;39.928;-75.152;2022-09-27T11:53:02;4.00;;;0.93;;
56631;SDS011;42503;39.928;-75.152;2022-09-27T11:55:21;2.42;;;1.15;;
56631;SDS011;42503;39.928;-75.152;2022-09-27T12:00:22;1.38;;;0.70;;
56631;SDS011;42503;39.928;-75.152;2022-09-27T12:02:36;2.58;;;1.00;;
56631;SDS011;42503;39.928;-75.152;2022-09-27T12:07:29;3.38;;;0.98;;
56631;SDS011;42503;39.928;-75.152;2022-09-27T12:09:46;2.17;;;1.00;;
56631;SDS011;42503;39.928;-75.152;2022-09-27T12:11:52;6.93;;;1.00;;
56631;SDS011;42503;39.928;-75.152;2022-09-27T12:14:01;1.10;;;0.85;;
56631;SDS011;42503;39.928;-75.152;2022-09-27T12:16:11;2.53;;;0.73;;
56631;SDS011;42503;39.928;-75.152;2022-09-27T12:18:25;1.98;;;0.70;;
56631;SDS011;42503;39.928;-75.152;2022-09-27T12:20:38;2.33;;;1.05;;
56631;SDS011;42503;39.928;-75.152;2022-09-27T12:22:50;3.30;;;0.80;;
56631;SDS011;42503;39.928;-75.152;2022-09-27T12:25:02;1.35;;;0.70;;
56631;SDS011;42503;39.928;-75.152;2022-09-27T12:29:37;3.75;;;1.20;;
56631;SDS011;42503;39.928;-75.152;2022-09-27T12:31:53;1.23;;;0.90;;
56631;SDS011;42503;39.928;-75.152;2022-09-27T12:36:42;4.32;;;1.30;;
56631;SDS011;42503;39.928;-75.152;2022-09-27T12:38:52;3.03;;;0.90;;
56631;SDS011;42503;39.928;-75.152;2022-09-27T12:41:01;3.70;;;0.80;;
56631;SDS011;42503;39.928;-75.152;2022-09-27T12:52:29;3.80;;;1.05;;
56631;SDS011;42503;39.928;-75.152;2022-09-27T12:54:48;1.00;;;0.90;;
56631;SDS011;42503;39.928;-75.152;2022-09-27T13:00:05;5.45;;;1.20;;
56631;SDS011;42503;39.928;-75.152;2022-09-27T13:07:28;3.13;;;0.90;;
56631;SDS011;42503;39.928;-75.152;2022-09-27T13:12:10;3.25;;;0.75;;
56631;SDS011;42503;39.928;-75.152;2022-09-27T13:14:23;1.92;;;1.10;;
56631;SDS011;42503;39.928;-75.152;2022-09-27T13:16:26;1.13;;;0.70;;
56631;SDS011;42503;39.928;-75.152;2022-09-27T13:18:48;1.33;;;0.60;;
56631;SDS011;42503;39.928;-75.152;2022-09-27T13:20:52;3.55;;;0.90;;
56631;SDS011;42503;39.928;-75.152;2022-09-27T13:22:58;3.25;;;1.08;;
56631;SDS011;42503;39.928;-75.152;2022-09-27T13:25:00;4.60;;;1.35;;
56631;SDS011;42503;39.928;-75.152;2022-09-27T13:27:12;3.70;;;0.90;;
56631;SDS011;42503;39.928;-75.152;2022-09-27T13:29:25;2.05;;;0.98;;
56631;SDS011;42503;39.928;-75.152;2022-09-27T13:36:39;1.40;;;0.80;;
56631;SDS011;42503;39.928;-75.152;2022-09-27T13:41:16;2.60;;;0.90;;
56631;SDS011;42503;39.928;-75.152;2022-09-27T13:43:27;1.42;;;0.73;;
56631;SDS011;42503;39.928;-75.152;2022-09-27T13:45:57;3.03;;;0.80;;
56631;SDS011;42503;39.928;-75.152;2022-09-27T13:48:06;3.35;;;0.80;;
56631;SDS011;42503;39.928;-75.152;2022-09-27T13:50:25;2.45;;;1.05;;
56631;SDS011;42503;39.928;-75.152;2022-09-27T13:52:40;3.83;;;1.10;;
56631;SDS011;42503;39.928;-75.152;2022-09-27T13:56:53;0.90;;;0.77;;
56631;SDS011;42503;39.928;-75.152;2022-09-27T13:59:01;2.05;;;0.80;;
56631;SDS011;42503;39.928;-75.152;2022-09-27T14:01:15;1.70;;;0.80;;
56631;SDS011;42503;39.928;-75.152;2022-09-27T14:03:29;1.20;;;0.75;;
56631;SDS011;42503;39.928;-75.152;2022-09-27T14:05:37;2.00;;;0.93;;
56631;SDS011;42503;39.928;-75.152;2022-09-27T14:07:41;1.42;;;0.82;;
56631;SDS011;42503;39.928;-75.152;2022-09-27T14:09:48;1.30;;;0.80;;
56631;SDS011;42503;39.928;-75.152;2022-09-27T14:11:57;1.70;;;0.88;;
56631;SDS011;42503;39.928;-75.152;2022-09-27T14:14:01;2.28;;;0.88;;
56631;SDS011;42503;39.928;-75.152;2022-09-27T14:16:15;3.17;;;0.90;;
56631;SDS011;42503;39.928;-75.152;2022-09-27T14:18:18;1.33;;;0.88;;
56631;SDS011;42503;39.928;-75.152;2022-09-27T14:20:30;4.45;;;1.10;;
56631;SDS011;42503;39.928;-75.152;2022-09-27T14:22:36;1.13;;;0.73;;
56631;SDS011;42503;39.928;-75.152;2022-09-27T14:26:42;3.15;;;1.00;;
56631;SDS011;42503;39.928;-75.152;2022-09-27T14:28:43;1.35;;;0.75;;
56631;SDS011;42503;39.928;-75.152;2022-09-27T14:30:44;1.60;;;0.95;;
56631;SDS011;42503;39.928;-75.152;2022-09-27T14:32:48;2.75;;;0.80;;
56631;SDS011;42503;39.928;-75.152;2022-09-27T14:37:33;1.92;;;0.80;;
56631;SDS011;42503;39.928;-75.152;2022-09-27T14:39:36;1.40;;;0.80;;
56631;SDS011;42503;39.928;-75.152;2022-09-27T14:41:37;3.05;;;0.98;;
56631;SDS011;42503;39.928;-75.152;2022-09-27T14:43:43;1.42;;;0.70;;
56631;SDS011;42503;39.928;-75.152;2022-09-27T14:45:52;0.77;;;0.57;;
56631;SDS011;42503;39.928;-75.152;2022-09-27T14:47:58;0.95;;;0.60;;
56631;SDS011;42503;39.928;-75.152;2022-09-27T14:50:01;1.50;;;0.70;;
56631;SDS011;42503;39.928;-75.152;2022-09-27T14:52:34;0.65;;;0.60;;
56631;SDS011;42503;39.928;-75.152;2022-09-27T14:54:39;1.38;;;0.80;;
56631;SDS011;42503;39.928;-75.152;2022-09-27T14:56:41;1.35;;;0.82;;